Tropical Cyclones
[Index]
Main Index Home Page Stock Weather Photos Extreme Storms Discussion Storm News and Storm Chasing Reports Tropical Cyclones / Hurricanes / Typhoons Weather Data and Links Wild Fires / Bushfires Weather Observation Techniques Weather Picture Catalogue Tornado Pictures and Reports Stock Video Footage and DVDs for sale
Season 1980-1981 Tropical Cyclone LISA Track Map
Season 1980-1981 Summaries: [BoM-AU] [JTWC-AU] [JTWC-SIO] [JTWC-SPAC] [JTWC-SH]
<<- Previous TC | JTWC 1980-1981 Season | Next TC ->>

click for intensity scale information  Lat/long Grid: Show Hide

 Date Labels: Show Hide

Joint Typhoon Warning Centre Cyclone Data

Name: LISA

06 Apr 1981 00:00 UTC to 14 Apr 1981 12:00 UTC

    date/time    lat    long     hPa   cat  kts
1981-04-06 00   14.3    58.6                  20          
1981-04-06 06   14.5    58.9                  20          
1981-04-06 12   14.7    59.3                  20          
1981-04-06 18   14.9    59.7                  20          
1981-04-07 00   15.0    60.2                  20          
1981-04-07 06   15.0    60.6                  20          
1981-04-07 12   15.0    61.1                  25          
1981-04-07 18   15.0    61.5                  25          
1981-04-08 00   15.0    62.0                  30          
1981-04-08 06   15.6    62.1                  30          
1981-04-08 12   16.3    61.5                  30          
1981-04-08 18   16.6    60.3                  35          
1981-04-09 00   16.8    58.8                  35          
1981-04-09 06   16.9    57.0                  35          
1981-04-09 12   17.1    55.4                  35          
1981-04-09 18   17.7    54.9                  35          
1981-04-10 00   18.4    55.0                  35          
1981-04-10 06   18.8    55.3                  35          
1981-04-10 12   19.2    55.7                  35          
1981-04-10 18   19.4    56.4                  35          
1981-04-11 00   19.4    57.1                  35          
1981-04-11 06   19.0    57.7                  35          
1981-04-11 12   18.5    58.2            1     40          
1981-04-11 18   18.4    58.7            1     40          
1981-04-12 00   18.3    59.2            1     40          
1981-04-12 06   18.0    59.7                  35          
1981-04-12 12   17.7    60.1                  35          
1981-04-12 18   17.3    60.2                  35          
1981-04-13 00   16.9    59.9                  35          
1981-04-13 06   16.7    59.4                  35          
1981-04-13 12   16.5    58.9                  35          
1981-04-13 18   16.2    58.5                  35          
1981-04-14 00   16.0    58.0                  30          
1981-04-14 06   15.8    57.6                  25          
1981-04-14 12   15.7    57.1                  20          
Winds are 1-min average.

Tropical cyclone tracks developed by Michael Bath using data from the Joint Typhoon Warning Centre Best Tracks and Google Maps.


[Australian Severe Weather index] [Copyright Notice] [Email Contacts] [Search This Site] [Privacy Policy]
Document: tropical_cyclone_lisa.htm Updated: 18 September 2016